Time;durP1;ratioP1;P1;durP2;ratioP2;P2;SDS_P1;SDS_P2;PMS_P1;PMS_P2;Temp;Humidity;BMP_temperature;BMP_pressure;BME280_temperature;BME280_humidity;BME280_pressure;Samples;Min_cycle;Max_cycle;Signal;HPM_P1;HPM_P2
2022/05/19 04:07:17;;;;;;;2.17;2.07;;;14.70;99.90;;;;;;4975482;28;20528;-63
2022/05/19 04:09:43;;;;;;;2.97;2.77;;;14.70;99.90;;;;;;4976706;28;20406;-64
2022/05/19 04:12:09;;;;;;;2.83;2.53;;;14.80;99.90;;;;;;4976167;28;20543;-64
2022/05/19 04:14:36;;;;;;;5.50;3.10;;;14.80;99.90;;;;;;4975588;28;20203;-64
2022/05/19 04:17:01;;;;;;;2.63;2.53;;;14.80;99.90;;;;;;4976116;28;20422;-64
2022/05/19 04:19:27;;;;;;;4.83;3.00;;;14.90;99.90;;;;;;4976599;28;20733;-63
2022/05/19 04:21:53;;;;;;;3.27;2.97;;;15.00;99.90;;;;;;4976375;28;20175;-64
2022/05/19 04:24:18;;;;;;;2.80;2.57;;;15.10;99.90;;;;;;4975638;28;20673;-64
2022/05/19 04:26:44;;;;;;;2.87;2.67;;;15.10;99.90;;;;;;4975968;28;20544;-64
2022/05/19 04:29:10;;;;;;;2.60;2.40;;;15.30;99.90;;;;;;4976213;28;20176;-64
2022/05/19 04:31:36;;;;;;;2.90;2.53;;;15.50;99.90;;;;;;4976178;28;20171;-64
2022/05/19 04:34:04;;;;;;;3.17;2.63;;;15.60;99.90;;;;;;4975051;28;20206;-63
2022/05/19 04:36:30;;;;;;;2.30;2.20;;;15.80;99.90;;;;;;4974507;28;20924;-64
2022/05/19 04:38:55;;;;;;;2.33;2.13;;;16.00;99.90;;;;;;4976203;28;20418;-64
2022/05/19 04:41:21;;;;;;;2.43;2.33;;;16.20;99.90;;;;;;4958193;28;20173;-63
2022/05/19 04:43:46;;;;;;;3.27;3.07;;;16.40;99.90;;;;;;4975016;28;20263;-63
2022/05/19 04:46:12;;;;;;;2.23;2.13;;;16.50;99.90;;;;;;4975606;28;20235;-63
2022/05/19 04:48:38;;;;;;;3.50;3.20;;;16.70;99.90;;;;;;4975904;28;20261;-63
2022/05/19 04:51:04;;;;;;;2.13;2.03;;;17.00;99.90;;;;;;4975609;28;20179;-63
2022/05/19 04:53:30;;;;;;;3.87;2.57;;;17.20;99.90;;;;;;4974771;28;20684;-63
2022/05/19 04:55:56;;;;;;;3.10;2.60;;;17.40;99.90;;;;;;4975510;28;20436;-63
2022/05/19 04:58:21;;;;;;;4.87;2.53;;;17.60;99.50;;;;;;4958080;28;20204;-63
2022/05/19 05:00:49;;;;;;;5.00;2.50;;;17.80;99.00;;;;;;4975284;28;20923;-64
2022/05/19 05:03:15;;;;;;;2.17;2.07;;;17.90;98.90;;;;;;4975179;28;20187;-64
2022/05/19 05:05:40;;;;;;;2.50;2.40;;;18.00;98.40;;;;;;4975103;28;20798;-63
2022/05/19 05:08:06;;;;;;;2.50;2.30;;;18.10;98.20;;;;;;4975556;28;20428;-63
2022/05/19 05:10:32;;;;;;;2.33;2.13;;;18.20;98.10;;;;;;4975134;28;20193;-63
2022/05/19 05:13:04;;;;;;;2.83;2.63;;;18.30;97.10;;;;;;4974926;28;20242;-63
2022/05/19 05:15:30;;;;;;;2.40;2.20;;;18.30;97.00;;;;;;4975313;28;20827;-65
2022/05/19 05:17:56;;;;;;;4.80;2.30;;;18.30;97.40;;;;;;4975005;28;20420;-64
2022/05/19 05:20:21;;;;;;;3.27;2.97;;;18.40;97.50;;;;;;4975392;28;20183;-64
2022/05/19 05:22:47;;;;;;;2.53;2.43;;;18.50;97.10;;;;;;4974798;28;20211;-65
2022/05/19 05:25:15;;;;;;;2.90;2.70;;;18.60;96.90;;;;;;4974772;28;20204;-66
2022/05/19 05:27:41;;;;;;;3.67;2.97;;;18.60;96.70;;;;;;4974253;28;20187;-64
2022/05/19 05:30:07;;;;;;;2.57;2.23;;;18.60;96.50;;;;;;4975105;28;20445;-65
2022/05/19 05:32:33;;;;;;;2.23;2.10;;;18.50;96.90;;;;;;4974650;28;21043;-64
2022/05/19 05:34:59;;;;;;;2.57;2.47;;;18.50;97.80;;;;;;4975272;28;20511;-64
2022/05/19 05:37:25;;;;;;;3.00;2.80;;;18.40;97.70;;;;;;4974452;28;20189;-64
2022/05/19 05:39:50;;;;;;;5.37;3.10;;;18.40;97.90;;;;;;4974929;28;20613;-65
2022/05/19 05:42:16;;;;;;;2.40;2.30;;;18.50;97.90;;;;;;4974799;28;20183;-64
2022/05/19 05:44:42;;;;;;;2.27;2.17;;;18.60;98.00;;;;;;4975086;28;20196;-65
2022/05/19 05:47:08;;;;;;;2.57;2.40;;;18.60;97.40;;;;;;4974356;28;20176;-67
2022/05/19 05:49:33;;;;;;;2.43;2.27;;;18.60;97.40;;;;;;4966964;28;20188;-65
2022/05/19 05:51:59;;;;;;;2.23;2.03;;;18.60;97.30;;;;;;4955432;29;20262;-64
2022/05/19 05:54:25;;;;;;;2.27;2.07;;;18.70;97.30;;;;;;4954873;29;20208;-67
2022/05/19 05:56:52;;;;;;;2.50;2.30;;;18.80;97.40;;;;;;4955493;28;20676;-65
2022/05/19 05:59:18;;;;;;;3.13;2.80;;;18.80;97.40;;;;;;4954628;28;20425;-66
2022/05/19 06:01:43;;;;;;;2.60;2.40;;;18.90;97.10;;;;;;4973596;28;20425;-66
2022/05/19 06:04:09;;;;;;;5.77;2.87;;;18.90;97.20;;;;;;4974075;28;20427;-65
2022/05/19 06:06:35;;;;;;;2.70;2.50;;;19.00;96.70;;;;;;4974230;28;20669;-67
2022/05/19 06:09:00;;;;;;;2.90;2.70;;;19.10;96.80;;;;;;4974401;28;20259;-66
2022/05/19 06:11:27;;;;;;;4.47;2.80;;;19.20;96.90;;;;;;4974275;28;20184;-66
2022/05/19 06:13:52;;;;;;;2.53;2.10;;;19.30;96.70;;;;;;4973838;28;20208;-65
2022/05/19 06:16:18;;;;;;;2.87;2.67;;;19.40;96.40;;;;;;4972708;28;20530;-65
2022/05/19 06:18:44;;;;;;;2.50;2.40;;;19.50;96.20;;;;;;4974439;28;20184;-66
2022/05/19 06:21:10;;;;;;;3.00;2.80;;;19.60;96.20;;;;;;4974495;28;20420;-64
2022/05/19 06:23:35;;;;;;;2.77;2.57;;;19.80;96.30;;;;;;4974120;28;20586;-66
2022/05/19 06:26:02;;;;;;;2.23;2.13;;;19.80;96.60;;;;;;4974174;28;20295;-69
2022/05/19 06:28:28;;;;;;;3.60;2.70;;;19.90;96.20;;;;;;4962332;28;20431;-70
2022/05/19 06:30:54;;;;;;;3.63;3.33;;;20.10;95.10;;;;;;4954753;29;20487;-69
2022/05/19 06:33:22;;;;;;;2.20;2.10;;;20.20;94.90;;;;;;4954520;29;20490;-69
2022/05/19 06:35:48;;;;;;;3.73;2.67;;;20.20;95.40;;;;;;4958717;28;20810;-69
2022/05/19 06:38:14;;;;;;;4.77;2.67;;;20.30;95.20;;;;;;4974672;28;20447;-70
2022/05/19 06:40:41;;;;;;;2.30;2.20;;;20.50;94.30;;;;;;4978057;28;20397;-69
2022/05/19 06:43:13;;;;;;;2.83;2.63;;;20.70;94.10;;;;;;4977697;28;20499;-69
2022/05/19 06:45:40;;;;;;;2.67;2.47;;;20.80;94.10;;;;;;4976502;28;20451;-69
2022/05/19 06:48:06;;;;;;;2.53;2.43;;;20.90;93.40;;;;;;4977870;28;20390;-68
2022/05/19 06:50:33;;;;;;;2.83;2.63;;;21.00;93.20;;;;;;4977936;28;20523;-70
2022/05/19 06:53:02;;;;;;;3.10;2.20;;;21.10;93.70;;;;;;4959881;28;20437;-70
2022/05/19 06:55:29;;;;;;;2.87;2.60;;;21.10;92.80;;;;;;4977418;28;20432;-70
2022/05/19 06:57:55;;;;;;;2.40;2.30;;;21.00;93.20;;;;;;4958293;29;20466;-71
2022/05/19 07:00:23;;;;;;;2.20;2.10;;;21.10;93.20;;;;;;4941173;29;20416;-70
2022/05/19 07:02:55;;;;;;;2.80;2.60;;;21.30;93.40;;;;;;4940395;29;20551;-72
2022/05/19 07:05:24;;;;;;;2.93;2.20;;;21.40;93.30;;;;;;4939269;29;20483;-72
2022/05/19 07:07:50;;;;;;;2.53;2.43;;;21.40;93.10;;;;;;4957227;28;20402;-70
2022/05/19 07:10:18;;;;;;;2.70;2.50;;;21.50;92.60;;;;;;4975533;28;20378;-70
2022/05/19 07:12:44;;;;;;;2.87;2.57;;;21.40;92.20;;;;;;4975085;28;20432;-73
2022/05/19 07:15:11;;;;;;;2.87;2.67;;;21.50;92.90;;;;;;4975231;28;20914;-72
2022/05/19 07:17:37;;;;;;;3.03;2.20;;;21.60;92.70;;;;;;4977088;28;20506;-74
2022/05/19 07:22:47;;;;;;;2.47;2.27;;;21.70;92.50;;;;;;4977082;28;20398;-70
2022/05/19 07:25:13;;;;;;;2.80;2.60;;;21.90;92.70;;;;;;4960075;28;20942;-71
2022/05/19 07:27:39;;;;;;;2.50;2.30;;;22.10;92.80;;;;;;4977020;28;20821;-71
2022/05/19 07:30:06;;;;;;;1.93;1.83;;;22.40;92.80;;;;;;4977259;28;20175;-69
2022/05/19 07:32:32;;;;;;;2.80;2.60;;;22.80;92.20;;;;;;4976581;28;20211;-70
2022/05/19 07:34:58;;;;;;;2.73;2.40;;;23.20;91.20;;;;;;4977212;28;20469;-72
2022/05/19 07:37:24;;;;;;;2.67;2.47;;;23.60;90.80;;;;;;4976629;28;20406;-70
2022/05/19 07:39:50;;;;;;;5.10;3.80;;;24.20;90.60;;;;;;4977073;28;20587;-73
2022/05/19 07:42:16;;;;;;;2.37;2.23;;;24.90;87.80;;;;;;4976880;28;20424;-74
2022/05/19 07:44:41;;;;;;;2.20;2.10;;;26.00;87.10;;;;;;4976919;28;20772;-73
2022/05/19 07:47:07;;;;;;;2.30;2.13;;;27.30;83.50;;;;;;4976526;28;20254;-74
2022/05/19 07:49:33;;;;;;;2.67;2.47;;;28.50;81.30;;;;;;4976848;28;20203;-74
2022/05/19 07:51:59;;;;;;;2.83;2.63;;;29.90;74.10;;;;;;4976394;28;20184;-65
2022/05/19 07:54:26;;;;;;;3.20;3.00;;;31.40;69.40;;;;;;4976453;28;20460;-65
2022/05/19 07:56:53;;;;;;;2.50;2.40;;;32.60;64.00;;;;;;4976698;28;20255;-64
2022/05/19 07:59:19;;;;;;;2.90;2.70;;;33.70;60.20;;;;;;4976539;28;20466;-64
2022/05/19 08:01:45;;;;;;;2.80;2.60;;;34.50;57.90;;;;;;4975040;28;20926;-65
2022/05/19 08:04:11;;;;;;;3.00;2.80;;;35.10;56.70;;;;;;4976247;28;20518;-64
2022/05/19 08:06:37;;;;;;;2.80;2.60;;;35.70;56.40;;;;;;4976509;28;20442;-66
2022/05/19 08:11:51;;;;;;;3.33;3.13;;;36.90;53.10;;;;;;4956198;28;20398;-67
2022/05/19 08:17:01;;;;;;;2.80;2.60;;;37.20;50.60;;;;;;4976766;28;20798;-67
2022/05/19 08:19:27;;;;;;;2.30;2.20;;;37.30;49.40;;;;;;4975600;28;20406;-68
2022/05/19 08:21:52;;;;;;;2.70;2.60;;;37.30;49.80;;;;;;4975493;28;20850;-70
2022/05/19 08:24:18;;;;;;;2.50;2.40;;;37.80;50.40;;;;;;4976073;28;20204;-69
2022/05/19 08:26:44;;;;;;;3.47;3.03;;;38.20;48.70;;;;;;4975817;28;20176;-69
2022/05/19 08:29:09;;;;;;;3.23;2.90;;;38.40;48.80;;;;;;4974160;28;20729;-69
2022/05/19 08:31:35;;;;;;;2.73;2.53;;;38.50;49.40;;;;;;4974645;28;20177;-69
2022/05/19 08:34:03;;;;;;;3.20;2.90;;;38.70;48.40;;;;;;4975781;28;20207;-69
2022/05/19 08:36:29;;;;;;;3.00;2.90;;;38.90;48.00;;;;;;4975820;28;20645;-68
2022/05/19 08:38:56;;;;;;;3.30;3.10;;;39.20;47.90;;;;;;4975645;28;20443;-69
2022/05/19 08:41:33;;;;;;;2.57;2.47;;;39.40;48.30;;;;;;4976025;28;20172;-70
2022/05/19 08:44:04;;;;;;;3.10;3.00;;;39.50;47.70;;;;;;4974807;28;20511;-70
2022/05/19 08:46:50;;;;;;;2.90;2.80;;;39.40;47.50;;;;;;4975819;28;20450;-70
2022/05/19 08:49:24;;;;;;;3.10;2.90;;;39.00;46.80;;;;;;4975554;28;20423;-69
2022/05/19 08:51:58;;;;;;;2.77;2.67;;;39.20;47.30;;;;;;4975833;28;20427;-70
2022/05/19 08:54:24;;;;;;;3.73;3.53;;;39.40;47.10;;;;;;4974672;28;20502;-69
2022/05/19 08:57:13;;;;;;;2.63;2.50;;;39.00;47.10;;;;;;4975693;28;20507;-69
2022/05/19 08:59:51;;;;;;;2.67;2.50;;;39.00;47.00;;;;;;4970412;28;20494;-71
2022/05/19 09:02:25;;;;;;;2.90;2.70;;;39.20;47.50;;;;;;4975629;28;20416;-70
2022/05/19 09:05:16;;;;;;;3.13;3.03;;;39.50;47.40;;;;;;4975040;28;20467;-70
2022/05/19 09:07:57;;;;;;;2.50;2.40;;;39.80;47.90;;;;;;4975705;28;20814;-70
2022/05/19 09:10:35;;;;;;;3.30;3.10;;;40.00;46.30;;;;;;4975563;28;20439;-68
2022/05/19 09:13:29;;;;;;;4.17;3.97;;;40.40;45.90;;;;;;4974870;28;20451;-68
2022/05/19 09:15:55;;;;;;;3.17;2.90;;;40.80;46.30;;;;;;4975097;28;20455;-69
2022/05/19 09:18:29;;;;;;;3.50;3.20;;;40.40;46.30;;;;;;4975186;28;20440;-68
2022/05/19 09:20:56;;;;;;;4.00;3.70;;;39.80;47.50;;;;;;4975433;28;20465;-69
2022/05/19 09:23:23;;;;;;;5.30;3.93;;;39.60;47.90;;;;;;4974608;28;20420;-69
2022/05/19 09:26:21;;;;;;;3.00;2.90;;;39.90;46.50;;;;;;4974836;28;20450;-69
2022/05/19 09:28:54;;;;;;;2.67;2.57;;;40.10;46.00;;;;;;4975368;28;20404;-69
2022/05/19 09:31:36;;;;;;;3.63;3.43;;;39.80;46.00;;;;;;4974804;28;20426;-69
2022/05/19 09:34:02;;;;;;;5.20;3.40;;;39.10;46.40;;;;;;4974678;28;20459;-68
2022/05/19 09:36:28;;;;;;;3.13;2.93;;;38.90;47.10;;;;;;4974754;28;20431;-68
2022/05/19 09:39:00;;;;;;;3.27;3.03;;;39.10;46.90;;;;;;4975102;28;20414;-69
2022/05/19 09:41:39;;;;;;;3.60;3.40;;;39.40;45.90;;;;;;4974745;28;20412;-69
2022/05/19 09:44:10;;;;;;;3.10;2.90;;;39.60;46.90;;;;;;4955357;28;20434;-68
2022/05/19 09:46:50;;;;;;;3.53;3.30;;;39.70;47.20;;;;;;4946100;28;20432;-68
2022/05/19 09:49:32;;;;;;;2.87;2.77;;;39.60;46.50;;;;;;4973623;28;20790;-68
2022/05/19 09:52:04;;;;;;;4.07;3.70;;;39.10;46.60;;;;;;4957860;28;20446;-67
2022/05/19 09:54:34;;;;;;;3.40;3.20;;;38.80;47.10;;;;;;4974409;28;20462;-69
2022/05/19 09:57:13;;;;;;;3.33;3.10;;;38.50;48.30;;;;;;4974933;28;20411;-67
2022/05/19 09:59:49;;;;;;;2.93;2.83;;;38.50;48.10;;;;;;4974516;28;20492;-68
2022/05/19 10:02:29;;;;;;;3.23;3.10;;;38.60;48.30;;;;;;4973993;28;20430;-67
2022/05/19 10:04:58;;;;;;;3.40;3.10;;;39.00;47.10;;;;;;4974301;28;20451;-68
2022/05/19 10:07:39;;;;;;;3.00;2.90;;;39.40;47.40;;;;;;4974263;28;20434;-67
2022/05/19 10:10:23;;;;;;;4.03;3.73;;;39.60;47.90;;;;;;4974869;28;20489;-68
2022/05/19 10:12:49;;;;;;;5.27;3.60;;;39.30;48.40;;;;;;4973611;28;20467;-68
2022/05/19 10:15:18;;;;;;;4.17;3.77;;;39.30;47.90;;;;;;4974242;28;20440;-70
2022/05/19 10:18:07;;;;;;;3.10;3.00;;;39.50;47.10;;;;;;4962451;28;20828;-68
2022/05/19 10:20:41;;;;;;;3.83;3.50;;;39.60;47.10;;;;;;4974144;28;20412;-68
2022/05/19 10:23:25;;;;;;;4.13;3.83;;;39.50;47.70;;;;;;4956082;28;20947;-68
2022/05/19 10:26:27;;;;;;;3.87;3.67;;;39.40;47.40;;;;;;4974304;28;20432;-67
2022/05/19 10:32:53;;;;;;;4.30;4.00;;;39.00;47.50;;;;;;4973602;28;21167;-67
2022/05/19 10:35:25;;;;;;;3.57;3.27;;;38.90;47.50;;;;;;4945670;28;20470;-68
2022/05/19 10:38:09;;;;;;;3.90;3.70;;;38.70;47.10;;;;;;4974130;28;20408;-67
2022/05/19 10:40:58;;;;;;;4.23;3.93;;;38.60;47.10;;;;;;4973846;28;20759;-68
2022/05/19 10:43:37;;;;;;;11.53;3.80;;;38.50;48.10;;;;;;4973860;28;20431;-68
2022/05/19 10:46:06;;;;;;;4.20;3.90;;;38.10;48.50;;;;;;4974189;28;20935;-69
2022/05/19 10:48:53;;;;;;;3.87;3.53;;;38.00;48.60;;;;;;4973957;28;20407;-67
2022/05/19 10:51:43;;;;;;;4.20;3.90;;;37.90;48.20;;;;;;4973865;28;20432;-67
2022/05/19 10:54:16;;;;;;;3.70;3.40;;;37.90;49.00;;;;;;4973316;28;20462;-67
2022/05/19 10:57:03;;;;;;;3.70;3.40;;;37.90;49.60;;;;;;4973890;28;20922;-67
2022/05/19 10:59:35;;;;;;;3.80;3.60;;;37.70;48.90;;;;;;4973972;28;20404;-67
2022/05/19 11:02:25;;;;;;;3.67;3.10;;;37.50;49.80;;;;;;4973490;28;20510;-69
2022/05/19 11:05:09;;;;;;;3.03;2.83;;;36.90;49.70;;;;;;4973926;28;20431;-67
2022/05/19 11:08:11;;;;;;;4.30;4.00;;;36.80;49.40;;;;;;4973695;28;20398;-67
2022/05/19 11:10:51;;;;;;;4.13;3.83;;;36.50;50.00;;;;;;4974255;28;20374;-67
2022/05/19 11:13:36;;;;;;;4.10;3.80;;;35.70;51.20;;;;;;4973650;28;20451;-68
2022/05/19 11:16:17;;;;;;;3.77;3.57;;;35.00;52.10;;;;;;4973968;28;20420;-66
2022/05/19 11:19:00;;;;;;;4.10;3.80;;;34.40;52.40;;;;;;4973634;28;20821;-67
2022/05/19 11:21:33;;;;;;;4.03;3.70;;;33.90;53.00;;;;;;4974101;28;20375;-67
2022/05/19 11:24:09;;;;;;;4.07;3.70;;;33.70;54.00;;;;;;4973578;28;20378;-67
2022/05/19 11:26:46;;;;;;;4.13;3.83;;;33.50;54.00;;;;;;4976922;28;20400;-67
2022/05/19 11:29:19;;;;;;;4.17;3.87;;;33.30;55.00;;;;;;4958307;29;20450;-67
2022/05/19 11:31:56;;;;;;;4.27;3.87;;;32.90;54.80;;;;;;4958060;29;20730;-66
2022/05/19 11:35:00;;;;;;;4.30;4.00;;;32.70;56.20;;;;;;4957495;28;20509;-66
2022/05/19 11:37:30;;;;;;;3.60;3.40;;;32.30;56.00;;;;;;4950488;28;20456;-68
2022/05/19 11:39:55;;;;;;;4.03;3.73;;;32.00;56.30;;;;;;4977367;28;20412;-65
2022/05/19 11:42:30;;;;;;;4.10;3.70;;;31.80;58.00;;;;;;4976935;28;20402;-65
2022/05/19 11:44:56;;;;;;;3.77;3.57;;;31.60;58.30;;;;;;4977081;28;20274;-66
2022/05/19 11:56:18;;;;;;;3.63;3.33;;;31.10;59.20;;;;;;4972570;28;20436;-67
2022/05/19 11:58:44;;;;;;;3.90;3.60;;;31.00;58.90;;;;;;4975398;28;20407;-66
2022/05/19 12:01:21;;;;;;;3.87;3.50;;;30.80;59.30;;;;;;4976627;28;20390;-66
2022/05/19 12:04:17;;;;;;;4.07;3.77;;;30.80;59.50;;;;;;4969751;28;20445;-69
2022/05/19 12:07:06;;;;;;;4.20;3.80;;;31.00;59.60;;;;;;4967431;28;20463;-68
2022/05/19 12:09:42;;;;;;;3.70;3.40;;;31.00;61.20;;;;;;4973744;28;20419;-67
2022/05/19 12:12:23;;;;;;;4.77;3.70;;;31.00;59.80;;;;;;4970777;28;20507;-68
2022/05/19 12:15:17;;;;;;;3.70;3.40;;;31.00;60.70;;;;;;4968035;28;20456;-66
2022/05/19 12:17:50;;;;;;;3.93;3.63;;;31.00;60.20;;;;;;4960450;28;20887;-67
2022/05/19 12:20:35;;;;;;;4.30;3.90;;;31.20;59.40;;;;;;4969600;28;20414;-68
2022/05/19 12:23:19;;;;;;;4.07;3.77;;;31.30;59.70;;;;;;4965868;28;20454;-66
2022/05/19 12:25:51;;;;;;;3.80;3.40;;;31.40;59.30;;;;;;4972804;28;20406;-68
2022/05/19 12:28:20;;;;;;;3.97;3.57;;;31.40;58.50;;;;;;4963583;28;20412;-69
2022/05/19 12:34:02;;;;;;;4.40;4.00;;;31.40;59.00;;;;;;4972431;28;20488;-67
2022/05/19 12:36:31;;;;;;;4.33;3.97;;;31.30;59.30;;;;;;4960325;28;20463;-68
2022/05/19 12:39:09;;;;;;;3.83;3.53;;;31.20;60.00;;;;;;4957042;28;20395;-67
2022/05/19 12:41:58;;;;;;;4.13;3.83;;;31.10;59.50;;;;;;4972512;28;20430;-65
2022/05/19 12:44:39;;;;;;;4.50;4.17;;;31.10;60.00;;;;;;4947117;28;20464;-66
2022/05/19 12:47:32;;;;;;;3.83;3.60;;;31.20;61.20;;;;;;4967054;28;20733;-66
2022/05/19 12:50:01;;;;;;;4.90;3.37;;;31.20;62.80;;;;;;4958988;28;20443;-66
2022/05/19 12:53:05;;;;;;;4.07;3.77;;;31.30;61.80;;;;;;4966727;28;20399;-66
2022/05/19 12:55:46;;;;;;;4.30;4.00;;;31.20;60.90;;;;;;4972259;28;20448;-66
2022/05/19 12:58:33;;;;;;;3.90;3.60;;;31.10;60.40;;;;;;4959736;28;20741;-67
2022/05/19 13:01:31;;;;;;;4.83;4.53;;;31.10;60.90;;;;;;4968103;28;20722;-66
2022/05/19 13:04:14;;;;;;;3.80;3.57;;;31.00;61.30;;;;;;4951839;28;20420;-67
2022/05/19 13:06:49;;;;;;;4.50;3.90;;;31.00;61.20;;;;;;4966108;28;20451;-67
2022/05/19 13:09:21;;;;;;;5.20;4.40;;;31.00;62.20;;;;;;4960983;28;20402;-67
2022/05/19 13:11:53;;;;;;;4.33;3.83;;;31.10;62.60;;;;;;4972172;28;20907;-67
2022/05/19 13:14:25;;;;;;;3.90;3.60;;;31.20;60.70;;;;;;4972030;28;20438;-66
2022/05/19 13:16:54;;;;;;;4.27;3.87;;;31.10;60.70;;;;;;4963807;28;20403;-67
2022/05/19 13:19:29;;;;;;;5.70;3.67;;;31.10;60.50;;;;;;4971040;28;20425;-66
2022/05/19 13:21:56;;;;;;;4.00;3.70;;;31.00;62.00;;;;;;4959741;28;20382;-67
2022/05/19 13:24:24;;;;;;;4.07;3.80;;;30.90;61.90;;;;;;4967249;28;20461;-67
2022/05/19 13:32:42;;;;;;;4.20;3.90;;;30.80;62.00;;;;;;4913270;28;20790;-67
2022/05/19 13:35:07;;;;;;;3.60;3.30;;;30.90;62.10;;;;;;4974939;28;20527;-64
2022/05/19 13:37:36;;;;;;;5.60;3.93;;;30.90;61.50;;;;;;4958370;28;20173;-68
2022/05/19 13:40:36;;;;;;;4.60;4.30;;;30.90;62.10;;;;;;4970941;28;20212;-66
2022/05/19 13:43:10;;;;;;;4.10;3.70;;;30.80;63.70;;;;;;4958257;28;20910;-66
2022/05/19 13:45:44;;;;;;;3.90;3.50;;;30.80;62.80;;;;;;4971347;28;20435;-65
2022/05/19 13:48:15;;;;;;;4.13;3.73;;;30.80;61.90;;;;;;4968253;28;20486;-65
2022/05/19 13:50:42;;;;;;;4.60;4.30;;;30.80;61.80;;;;;;4964857;28;20926;-66
2022/05/19 13:53:09;;;;;;;3.93;3.63;;;30.80;62.00;;;;;;4968581;28;20429;-66
2022/05/19 13:55:37;;;;;;;3.80;3.40;;;30.80;62.20;;;;;;4958484;28;20487;-67
2022/05/19 13:58:05;;;;;;;5.20;3.87;;;30.90;61.40;;;;;;4970830;28;20790;-65
2022/05/19 14:00:36;;;;;;;4.83;4.07;;;31.00;61.60;;;;;;4965635;28;20420;-67
2022/05/19 14:03:05;;;;;;;4.90;3.60;;;31.00;59.80;;;;;;4974434;28;20896;-66
2022/05/19 14:05:40;;;;;;;3.50;3.20;;;31.10;60.60;;;;;;4958382;28;20459;-68
2022/05/19 14:08:13;;;;;;;3.90;3.60;;;31.20;60.80;;;;;;4951333;29;20494;-67
2022/05/19 14:10:58;;;;;;;4.03;3.73;;;31.30;60.80;;;;;;4964913;28;20398;-66
2022/05/19 14:13:29;;;;;;;4.10;3.20;;;31.40;61.20;;;;;;4941474;29;20887;-68
2022/05/19 14:16:02;;;;;;;3.70;3.50;;;31.50;59.90;;;;;;4943385;28;20953;-67
2022/05/19 14:18:54;;;;;;;4.33;3.90;;;31.60;60.10;;;;;;4966694;28;20787;-67
2022/05/19 14:21:25;;;;;;;4.00;3.70;;;31.60;61.70;;;;;;4970327;28;20386;-67
2022/05/19 14:24:03;;;;;;;4.37;3.70;;;31.60;62.60;;;;;;4937675;28;20481;-67
2022/05/19 14:26:41;;;;;;;4.07;3.80;;;31.60;63.20;;;;;;4957046;28;20431;-68
2022/05/19 14:29:22;;;;;;;5.40;4.20;;;31.50;62.00;;;;;;4954161;28;20432;-68
2022/05/19 14:31:56;;;;;;;4.00;3.47;;;31.40;62.80;;;;;;4954101;28;20403;-67
2022/05/19 14:34:38;;;;;;;4.23;3.83;;;31.40;63.60;;;;;;4944221;28;20525;-66
2022/05/19 14:37:36;;;;;;;4.07;3.67;;;31.30;61.60;;;;;;4961364;28;20420;-67
2022/05/19 14:43:08;;;;;;;5.57;3.80;;;31.20;63.10;;;;;;4973324;28;20405;-66
2022/05/19 14:45:38;;;;;;;6.77;3.87;;;31.10;63.80;;;;;;4952392;28;20821;-66
2022/05/19 14:48:08;;;;;;;4.17;3.23;;;31.00;63.90;;;;;;4969192;28;20395;-68
2022/05/19 14:50:34;;;;;;;4.50;4.10;;;30.90;64.00;;;;;;4963833;28;20478;-68
2022/05/19 14:53:22;;;;;;;3.60;3.40;;;30.80;64.00;;;;;;4961421;28;20434;-66
2022/05/19 14:56:09;;;;;;;4.37;4.00;;;30.70;64.50;;;;;;4960148;28;20437;-67
2022/05/19 14:58:45;;;;;;;3.73;3.43;;;30.70;64.90;;;;;;4964077;28;20391;-66
2022/05/19 15:01:11;;;;;;;4.00;3.70;;;30.70;65.10;;;;;;4941277;29;20835;-65
2022/05/19 15:03:37;;;;;;;4.10;3.70;;;30.70;65.80;;;;;;4956839;28;20447;-64
2022/05/19 15:06:03;;;;;;;3.70;3.50;;;30.70;65.60;;;;;;4965014;28;20477;-65
2022/05/19 15:08:32;;;;;;;4.03;3.73;;;30.70;66.30;;;;;;4970608;28;20438;-67
2022/05/19 15:10:58;;;;;;;3.30;3.10;;;30.80;66.90;;;;;;4949321;28;20429;-66
2022/05/19 15:13:32;;;;;;;4.30;4.00;;;30.60;65.90;;;;;;4976980;28;20766;-65
2022/05/19 15:16:00;;;;;;;4.00;3.70;;;30.60;68.00;;;;;;4977458;28;20204;-62
2022/05/19 15:18:34;;;;;;;4.27;3.87;;;30.60;67.40;;;;;;4977285;28;20534;-63
2022/05/19 15:21:00;;;;;;;4.40;4.00;;;30.60;65.40;;;;;;4975474;28;20441;-63
2022/05/19 15:23:29;;;;;;;5.13;4.73;;;30.60;67.00;;;;;;4976761;28;20467;-62
2022/05/19 15:26:05;;;;;;;3.93;3.73;;;30.70;68.10;;;;;;4977183;28;20291;-62
2022/05/19 15:28:32;;;;;;;4.00;3.70;;;30.70;65.40;;;;;;4941008;29;20432;-65
2022/05/19 15:30:58;;;;;;;3.83;3.63;;;30.70;65.40;;;;;;4958142;29;20422;-62
2022/05/19 15:33:25;;;;;;;4.33;4.00;;;30.80;65.70;;;;;;4957548;29;20466;-64
2022/05/19 15:35:53;;;;;;;4.13;3.83;;;30.90;64.90;;;;;;4967726;28;20207;-65
2022/05/19 15:38:22;;;;;;;4.73;4.33;;;31.00;65.00;;;;;;4976580;28;20439;-66
2022/05/19 15:40:57;;;;;;;4.10;3.60;;;30.90;64.80;;;;;;4977164;28;20416;-65
2022/05/19 15:43:26;;;;;;;4.60;4.20;;;31.00;64.60;;;;;;4958420;28;20414;-67
2022/05/19 15:45:52;;;;;;;4.10;3.80;;;31.00;63.90;;;;;;4955009;28;20458;-65
2022/05/19 15:48:18;;;;;;;4.37;4.00;;;31.10;63.30;;;;;;4951709;28;20406;-64
2022/05/19 15:50:48;;;;;;;3.57;3.33;;;31.10;63.80;;;;;;4949135;29;20399;-68
2022/05/19 15:53:29;;;;;;;4.77;4.23;;;31.10;63.60;;;;;;4962069;28;20466;-68
2022/05/19 15:55:58;;;;;;;3.90;3.67;;;31.20;63.00;;;;;;4958976;28;20442;-67
2022/05/19 15:58:30;;;;;;;4.10;3.80;;;31.10;62.80;;;;;;4946063;29;20399;-67
2022/05/19 16:01:00;;;;;;;4.30;4.00;;;31.20;63.20;;;;;;4938906;28;20451;-66
2022/05/19 16:03:32;;;;;;;7.07;4.10;;;31.20;65.00;;;;;;4947443;28;20495;-69
2022/05/19 16:06:04;;;;;;;3.50;3.30;;;31.20;63.90;;;;;;4939128;28;20781;-67
2022/05/19 16:08:31;;;;;;;4.20;3.90;;;31.20;64.60;;;;;;4961289;28;20409;-67
2022/05/19 16:10:58;;;;;;;4.70;3.70;;;31.30;65.10;;;;;;4948732;28;20415;-68
2022/05/19 16:13:26;;;;;;;3.67;3.20;;;31.40;64.70;;;;;;4956603;28;20444;-65
2022/05/19 16:15:52;;;;;;;3.60;3.30;;;31.30;65.10;;;;;;4963761;28;20447;-68
2022/05/19 16:18:17;;;;;;;4.90;4.50;;;31.40;64.50;;;;;;4956091;28;20461;-68
2022/05/19 16:20:44;;;;;;;4.43;4.00;;;31.50;64.50;;;;;;4956356;28;20662;-68
2022/05/19 16:23:10;;;;;;;3.93;3.60;;;31.40;63.90;;;;;;4955703;28;20180;-68
2022/05/19 16:25:38;;;;;;;4.00;3.60;;;31.30;63.70;;;;;;4956012;28;20412;-69
2022/05/19 16:28:04;;;;;;;4.60;3.90;;;31.30;62.70;;;;;;4956405;28;20403;-67
2022/05/19 16:30:34;;;;;;;4.00;3.70;;;31.20;63.30;;;;;;4956148;28;20426;-67
2022/05/19 16:32:59;;;;;;;3.90;3.60;;;31.10;62.00;;;;;;4955668;28;20431;-64
2022/05/19 16:35:25;;;;;;;3.90;3.63;;;31.00;62.30;;;;;;4952652;28;20477;-63
2022/05/19 16:38:00;;;;;;;5.23;3.80;;;30.80;62.20;;;;;;4973730;28;20199;-64
2022/05/19 16:40:28;;;;;;;4.13;3.70;;;30.70;62.90;;;;;;4957356;28;20797;-65
2022/05/19 16:42:54;;;;;;;4.03;3.73;;;30.60;62.80;;;;;;4955682;28;20432;-65
2022/05/19 16:45:23;;;;;;;4.10;3.63;;;30.60;62.90;;;;;;4970302;28;20421;-65
2022/05/19 16:47:49;;;;;;;3.83;3.30;;;30.50;63.60;;;;;;4973780;28;20746;-65
2022/05/19 16:50:15;;;;;;;4.50;4.10;;;30.40;63.70;;;;;;4974598;28;20447;-65
2022/05/19 16:52:41;;;;;;;3.77;3.47;;;30.40;64.10;;;;;;4964773;28;20189;-65
2022/05/19 16:57:59;;;;;;;3.07;2.77;;;30.40;67.00;;;;;;4961489;28;20394;-64
2022/05/19 17:00:28;;;;;;;4.27;2.97;;;30.20;68.60;;;;;;4956273;29;20504;-65
2022/05/19 17:02:55;;;;;;;2.93;2.73;;;29.90;70.50;;;;;;4955733;29;20767;-64
2022/05/19 17:05:21;;;;;;;2.93;2.63;;;29.70;71.50;;;;;;4956765;28;20437;-65
2022/05/19 17:07:49;;;;;;;3.63;3.33;;;29.40;73.30;;;;;;4956335;29;20782;-65
2022/05/19 17:10:24;;;;;;;4.27;3.87;;;29.20;72.70;;;;;;4963757;28;20402;-66
2022/05/19 17:12:52;;;;;;;3.20;2.90;;;29.10;73.20;;;;;;4973831;28;20477;-67
2022/05/19 17:15:19;;;;;;;3.10;2.90;;;28.90;73.50;;;;;;4975383;28;20418;-68
2022/05/19 17:17:46;;;;;;;3.70;3.37;;;28.80;74.30;;;;;;4975167;28;20443;-68
2022/05/19 17:20:14;;;;;;;3.83;3.33;;;28.60;74.60;;;;;;4975441;28;20771;-67
2022/05/19 17:22:40;;;;;;;5.03;3.10;;;28.40;74.60;;;;;;4950677;28;20730;-67
2022/05/19 17:25:08;;;;;;;2.80;2.60;;;28.20;74.30;;;;;;4968823;28;20809;-66
2022/05/19 17:27:35;;;;;;;3.73;3.43;;;28.10;74.30;;;;;;4975152;28;20377;-64
2022/05/19 17:30:01;;;;;;;3.50;3.20;;;28.00;75.00;;;;;;4975119;28;20388;-62
2022/05/19 17:32:27;;;;;;;8.37;3.43;;;27.90;75.60;;;;;;4974408;28;20390;-63
2022/05/19 17:34:52;;;;;;;4.10;3.53;;;27.80;77.30;;;;;;4975003;28;21114;-62
2022/05/19 17:37:18;;;;;;;3.60;3.30;;;27.80;76.60;;;;;;4975100;28;20199;-63
2022/05/19 17:39:44;;;;;;;5.50;2.53;;;27.70;76.70;;;;;;4974391;28;20578;-64
2022/05/19 17:42:10;;;;;;;5.13;2.70;;;27.60;68.80;;;;;;4973981;28;20180;-64
2022/05/19 17:44:36;;;;;;;2.87;2.67;;;27.20;68.90;;;;;;4974911;28;20618;-63
2022/05/19 17:47:02;;;;;;;2.93;2.70;;;26.70;71.60;;;;;;4974695;28;20473;-63
2022/05/19 17:49:28;;;;;;;3.33;3.00;;;26.30;74.60;;;;;;4974832;28;20219;-64
2022/05/19 17:51:53;;;;;;;5.03;3.57;;;25.90;77.00;;;;;;4974651;28;20419;-64